sensor_id;sensor_type;location;lat;lon;timestamp;P1;durP1;ratioP1;P2;durP2;ratioP2
70312;SDS011;57723;51.698;5.344;2023-08-06T00:00:21;2.70;;;1.20;;
70312;SDS011;57723;51.698;5.344;2023-08-06T00:02:46;2.30;;;1.30;;
70312;SDS011;57723;51.698;5.344;2023-08-06T00:05:12;4.40;;;1.23;;
70312;SDS011;57723;51.698;5.344;2023-08-06T00:07:46;2.83;;;1.40;;
70312;SDS011;57723;51.698;5.344;2023-08-06T00:10:21;3.85;;;1.30;;
70312;SDS011;57723;51.698;5.344;2023-08-06T00:12:47;2.20;;;1.20;;
70312;SDS011;57723;51.698;5.344;2023-08-06T00:15:13;2.85;;;1.38;;
70312;SDS011;57723;51.698;5.344;2023-08-06T00:17:39;3.20;;;1.47;;
70312;SDS011;57723;51.698;5.344;2023-08-06T00:20:05;2.03;;;1.17;;
70312;SDS011;57723;51.698;5.344;2023-08-06T00:22:35;2.65;;;1.27;;
70312;SDS011;57723;51.698;5.344;2023-08-06T00:25:00;1.92;;;1.02;;
70312;SDS011;57723;51.698;5.344;2023-08-06T00:27:29;2.30;;;1.10;;
70312;SDS011;57723;51.698;5.344;2023-08-06T00:29:54;2.42;;;1.38;;
70312;SDS011;57723;51.698;5.344;2023-08-06T00:32:19;3.77;;;1.43;;
70312;SDS011;57723;51.698;5.344;2023-08-06T00:34:45;2.47;;;1.20;;
70312;SDS011;57723;51.698;5.344;2023-08-06T00:37:10;1.93;;;1.20;;
70312;SDS011;57723;51.698;5.344;2023-08-06T00:39:36;2.50;;;1.20;;
70312;SDS011;57723;51.698;5.344;2023-08-06T00:42:02;2.28;;;1.20;;
70312;SDS011;57723;51.698;5.344;2023-08-06T00:44:28;1.90;;;1.10;;
70312;SDS011;57723;51.698;5.344;2023-08-06T00:46:53;3.00;;;1.20;;
70312;SDS011;57723;51.698;5.344;2023-08-06T00:49:19;2.53;;;1.27;;
70312;SDS011;57723;51.698;5.344;2023-08-06T00:51:44;1.83;;;1.13;;
70312;SDS011;57723;51.698;5.344;2023-08-06T00:54:12;4.60;;;1.20;;
70312;SDS011;57723;51.698;5.344;2023-08-06T00:56:38;4.67;;;1.30;;
70312;SDS011;57723;51.698;5.344;2023-08-06T00:59:06;4.75;;;1.30;;
70312;SDS011;57723;51.698;5.344;2023-08-06T01:01:37;2.93;;;1.20;;
70312;SDS011;57723;51.698;5.344;2023-08-06T01:04:02;5.05;;;1.30;;
70312;SDS011;57723;51.698;5.344;2023-08-06T01:06:39;3.42;;;1.00;;
70312;SDS011;57723;51.698;5.344;2023-08-06T01:09:15;1.98;;;1.10;;
70312;SDS011;57723;51.698;5.344;2023-08-06T01:12:05;3.63;;;1.27;;
70312;SDS011;57723;51.698;5.344;2023-08-06T01:14:52;2.53;;;1.38;;
70312;SDS011;57723;51.698;5.344;2023-08-06T01:17:19;2.22;;;1.25;;
70312;SDS011;57723;51.698;5.344;2023-08-06T01:19:45;4.53;;;1.15;;
70312;SDS011;57723;51.698;5.344;2023-08-06T01:22:10;3.87;;;1.13;;
70312;SDS011;57723;51.698;5.344;2023-08-06T01:24:35;2.07;;;1.07;;
70312;SDS011;57723;51.698;5.344;2023-08-06T01:27:04;3.00;;;1.00;;
70312;SDS011;57723;51.698;5.344;2023-08-06T01:29:32;2.33;;;1.10;;
70312;SDS011;57723;51.698;5.344;2023-08-06T01:32:02;3.13;;;1.30;;
70312;SDS011;57723;51.698;5.344;2023-08-06T01:34:33;2.53;;;1.20;;
70312;SDS011;57723;51.698;5.344;2023-08-06T01:36:59;3.07;;;1.30;;
70312;SDS011;57723;51.698;5.344;2023-08-06T01:39:27;2.67;;;1.20;;
70312;SDS011;57723;51.698;5.344;2023-08-06T01:41:53;2.65;;;1.08;;
70312;SDS011;57723;51.698;5.344;2023-08-06T01:44:20;2.27;;;1.17;;
70312;SDS011;57723;51.698;5.344;2023-08-06T01:46:46;2.53;;;1.10;;
70312;SDS011;57723;51.698;5.344;2023-08-06T01:49:11;2.13;;;1.20;;
70312;SDS011;57723;51.698;5.344;2023-08-06T01:51:37;3.20;;;1.10;;
70312;SDS011;57723;51.698;5.344;2023-08-06T01:54:02;3.57;;;1.00;;
70312;SDS011;57723;51.698;5.344;2023-08-06T01:56:31;4.93;;;1.42;;
70312;SDS011;57723;51.698;5.344;2023-08-06T01:58:59;3.35;;;1.13;;
70312;SDS011;57723;51.698;5.344;2023-08-06T02:01:24;1.70;;;1.10;;
70312;SDS011;57723;51.698;5.344;2023-08-06T02:03:52;3.10;;;1.30;;
70312;SDS011;57723;51.698;5.344;2023-08-06T02:06:18;2.17;;;1.03;;
70312;SDS011;57723;51.698;5.344;2023-08-06T02:08:43;2.90;;;0.95;;
70312;SDS011;57723;51.698;5.344;2023-08-06T02:11:08;3.23;;;1.33;;
70312;SDS011;57723;51.698;5.344;2023-08-06T02:13:34;1.57;;;0.90;;
70312;SDS011;57723;51.698;5.344;2023-08-06T02:15:59;2.87;;;1.10;;
70312;SDS011;57723;51.698;5.344;2023-08-06T02:18:30;2.85;;;1.10;;
70312;SDS011;57723;51.698;5.344;2023-08-06T02:20:56;2.17;;;1.00;;
70312;SDS011;57723;51.698;5.344;2023-08-06T02:23:25;4.20;;;0.93;;
70312;SDS011;57723;51.698;5.344;2023-08-06T02:25:57;2.17;;;1.30;;
70312;SDS011;57723;51.698;5.344;2023-08-06T02:28:23;1.87;;;1.10;;
70312;SDS011;57723;51.698;5.344;2023-08-06T02:30:51;2.88;;;0.95;;
70312;SDS011;57723;51.698;5.344;2023-08-06T02:33:20;1.73;;;1.03;;
70312;SDS011;57723;51.698;5.344;2023-08-06T02:35:45;2.58;;;1.10;;
70312;SDS011;57723;51.698;5.344;2023-08-06T02:38:10;1.63;;;1.00;;
70312;SDS011;57723;51.698;5.344;2023-08-06T02:40:38;3.53;;;1.13;;
70312;SDS011;57723;51.698;5.344;2023-08-06T02:43:07;2.10;;;1.20;;
70312;SDS011;57723;51.698;5.344;2023-08-06T02:45:35;2.23;;;1.00;;
70312;SDS011;57723;51.698;5.344;2023-08-06T02:48:01;2.05;;;1.10;;
70312;SDS011;57723;51.698;5.344;2023-08-06T02:50:27;2.65;;;1.10;;
70312;SDS011;57723;51.698;5.344;2023-08-06T02:52:53;5.43;;;1.13;;
70312;SDS011;57723;51.698;5.344;2023-08-06T02:55:18;3.90;;;1.27;;
70312;SDS011;57723;51.698;5.344;2023-08-06T02:57:44;2.00;;;1.10;;
70312;SDS011;57723;51.698;5.344;2023-08-06T03:00:09;1.87;;;1.00;;
70312;SDS011;57723;51.698;5.344;2023-08-06T03:02:39;4.07;;;1.08;;
70312;SDS011;57723;51.698;5.344;2023-08-06T03:05:05;4.43;;;1.10;;
70312;SDS011;57723;51.698;5.344;2023-08-06T03:07:31;2.13;;;1.27;;
70312;SDS011;57723;51.698;5.344;2023-08-06T03:09:56;2.80;;;1.13;;
70312;SDS011;57723;51.698;5.344;2023-08-06T03:12:21;1.90;;;1.00;;
70312;SDS011;57723;51.698;5.344;2023-08-06T03:14:47;3.20;;;1.20;;
70312;SDS011;57723;51.698;5.344;2023-08-06T03:17:12;2.47;;;1.00;;
70312;SDS011;57723;51.698;5.344;2023-08-06T03:19:38;2.23;;;0.93;;
70312;SDS011;57723;51.698;5.344;2023-08-06T03:22:03;1.77;;;1.10;;
70312;SDS011;57723;51.698;5.344;2023-08-06T03:24:28;1.53;;;0.97;;
70312;SDS011;57723;51.698;5.344;2023-08-06T03:26:54;3.35;;;1.00;;
70312;SDS011;57723;51.698;5.344;2023-08-06T03:29:19;3.30;;;1.50;;
70312;SDS011;57723;51.698;5.344;2023-08-06T03:31:46;3.25;;;1.20;;
70312;SDS011;57723;51.698;5.344;2023-08-06T03:34:11;1.63;;;1.00;;
70312;SDS011;57723;51.698;5.344;2023-08-06T03:36:37;1.80;;;1.00;;
70312;SDS011;57723;51.698;5.344;2023-08-06T03:39:03;1.60;;;1.03;;
70312;SDS011;57723;51.698;5.344;2023-08-06T03:41:28;2.03;;;0.90;;
70312;SDS011;57723;51.698;5.344;2023-08-06T03:43:53;3.43;;;1.20;;
70312;SDS011;57723;51.698;5.344;2023-08-06T03:46:19;2.63;;;1.17;;
70312;SDS011;57723;51.698;5.344;2023-08-06T03:48:49;1.73;;;0.97;;
70312;SDS011;57723;51.698;5.344;2023-08-06T03:51:15;3.55;;;1.05;;
70312;SDS011;57723;51.698;5.344;2023-08-06T03:53:41;1.93;;;1.13;;
70312;SDS011;57723;51.698;5.344;2023-08-06T03:56:07;2.20;;;1.10;;
70312;SDS011;57723;51.698;5.344;2023-08-06T03:58:33;1.67;;;1.10;;
70312;SDS011;57723;51.698;5.344;2023-08-06T04:00:59;2.23;;;1.07;;
70312;SDS011;57723;51.698;5.344;2023-08-06T04:03:24;1.85;;;1.08;;
70312;SDS011;57723;51.698;5.344;2023-08-06T04:05:50;2.83;;;1.20;;
70312;SDS011;57723;51.698;5.344;2023-08-06T04:08:15;1.87;;;1.00;;
70312;SDS011;57723;51.698;5.344;2023-08-06T04:10:40;2.40;;;1.00;;
70312;SDS011;57723;51.698;5.344;2023-08-06T04:13:08;1.77;;;1.10;;
70312;SDS011;57723;51.698;5.344;2023-08-06T04:15:34;2.63;;;1.30;;
70312;SDS011;57723;51.698;5.344;2023-08-06T04:18:00;3.83;;;1.30;;
70312;SDS011;57723;51.698;5.344;2023-08-06T04:20:25;1.80;;;1.10;;
70312;SDS011;57723;51.698;5.344;2023-08-06T04:22:50;2.77;;;0.90;;
70312;SDS011;57723;51.698;5.344;2023-08-06T04:25:16;2.50;;;1.00;;
70312;SDS011;57723;51.698;5.344;2023-08-06T04:27:49;2.13;;;1.13;;
70312;SDS011;57723;51.698;5.344;2023-08-06T04:30:14;2.50;;;1.13;;
70312;SDS011;57723;51.698;5.344;2023-08-06T04:32:39;2.13;;;1.13;;
70312;SDS011;57723;51.698;5.344;2023-08-06T04:35:05;2.37;;;1.10;;
70312;SDS011;57723;51.698;5.344;2023-08-06T04:37:31;3.72;;;1.15;;
70312;SDS011;57723;51.698;5.344;2023-08-06T04:39:57;1.52;;;1.00;;
70312;SDS011;57723;51.698;5.344;2023-08-06T04:42:22;2.43;;;1.10;;
70312;SDS011;57723;51.698;5.344;2023-08-06T04:44:47;1.83;;;1.20;;
70312;SDS011;57723;51.698;5.344;2023-08-06T04:47:13;3.13;;;1.17;;
70312;SDS011;57723;51.698;5.344;2023-08-06T04:49:42;2.33;;;1.10;;
70312;SDS011;57723;51.698;5.344;2023-08-06T04:52:08;2.10;;;1.10;;
70312;SDS011;57723;51.698;5.344;2023-08-06T04:54:33;1.97;;;1.10;;
70312;SDS011;57723;51.698;5.344;2023-08-06T04:56:59;3.70;;;1.20;;
70312;SDS011;57723;51.698;5.344;2023-08-06T04:59:24;1.90;;;1.00;;
70312;SDS011;57723;51.698;5.344;2023-08-06T05:01:49;2.10;;;0.90;;
70312;SDS011;57723;51.698;5.344;2023-08-06T05:04:14;2.27;;;1.00;;
70312;SDS011;57723;51.698;5.344;2023-08-06T05:06:40;2.30;;;1.10;;
70312;SDS011;57723;51.698;5.344;2023-08-06T05:09:06;1.85;;;1.00;;
70312;SDS011;57723;51.698;5.344;2023-08-06T05:11:31;2.00;;;1.10;;
70312;SDS011;57723;51.698;5.344;2023-08-06T05:13:57;2.67;;;1.13;;
70312;SDS011;57723;51.698;5.344;2023-08-06T05:16:23;1.83;;;0.90;;
70312;SDS011;57723;51.698;5.344;2023-08-06T05:18:51;1.70;;;1.00;;
70312;SDS011;57723;51.698;5.344;2023-08-06T05:21:17;3.35;;;1.10;;
70312;SDS011;57723;51.698;5.344;2023-08-06T05:23:47;3.22;;;1.25;;
70312;SDS011;57723;51.698;5.344;2023-08-06T05:26:13;3.83;;;1.10;;
70312;SDS011;57723;51.698;5.344;2023-08-06T05:28:50;8.15;;;1.30;;
70312;SDS011;57723;51.698;5.344;2023-08-06T05:31:16;4.67;;;1.20;;
70312;SDS011;57723;51.698;5.344;2023-08-06T05:33:42;4.43;;;1.30;;
70312;SDS011;57723;51.698;5.344;2023-08-06T05:36:07;2.83;;;1.13;;
70312;SDS011;57723;51.698;5.344;2023-08-06T05:38:44;3.58;;;1.20;;
70312;SDS011;57723;51.698;5.344;2023-08-06T05:41:13;2.90;;;1.30;;
70312;SDS011;57723;51.698;5.344;2023-08-06T05:43:38;3.92;;;1.30;;
70312;SDS011;57723;51.698;5.344;2023-08-06T05:46:04;1.90;;;1.10;;
70312;SDS011;57723;51.698;5.344;2023-08-06T05:48:30;6.25;;;1.10;;
70312;SDS011;57723;51.698;5.344;2023-08-06T05:50:57;18.95;;;5.43;;
70312;SDS011;57723;51.698;5.344;2023-08-06T05:53:22;15.37;;;4.00;;
70312;SDS011;57723;51.698;5.344;2023-08-06T05:55:48;12.07;;;3.22;;
70312;SDS011;57723;51.698;5.344;2023-08-06T05:58:13;12.30;;;3.30;;
70312;SDS011;57723;51.698;5.344;2023-08-06T06:00:39;12.27;;;2.97;;
70312;SDS011;57723;51.698;5.344;2023-08-06T06:03:04;10.15;;;2.80;;
70312;SDS011;57723;51.698;5.344;2023-08-06T06:05:30;8.90;;;2.80;;
70312;SDS011;57723;51.698;5.344;2023-08-06T06:07:55;18.20;;;2.90;;
70312;SDS011;57723;51.698;5.344;2023-08-06T06:10:20;7.67;;;2.80;;
70312;SDS011;57723;51.698;5.344;2023-08-06T06:12:46;14.50;;;3.30;;
70312;SDS011;57723;51.698;5.344;2023-08-06T06:15:13;11.63;;;3.05;;
70312;SDS011;57723;51.698;5.344;2023-08-06T06:17:39;7.70;;;2.40;;
70312;SDS011;57723;51.698;5.344;2023-08-06T06:20:14;10.83;;;2.70;;
70312;SDS011;57723;51.698;5.344;2023-08-06T06:22:41;9.82;;;2.63;;
70312;SDS011;57723;51.698;5.344;2023-08-06T06:25:08;10.57;;;2.47;;
70312;SDS011;57723;51.698;5.344;2023-08-06T06:27:33;7.80;;;2.40;;
70312;SDS011;57723;51.698;5.344;2023-08-06T06:30:01;6.00;;;2.30;;
70312;SDS011;57723;51.698;5.344;2023-08-06T06:32:32;5.63;;;2.17;;
70312;SDS011;57723;51.698;5.344;2023-08-06T06:34:59;7.32;;;2.42;;
70312;SDS011;57723;51.698;5.344;2023-08-06T06:37:25;8.00;;;2.50;;
70312;SDS011;57723;51.698;5.344;2023-08-06T06:39:50;9.47;;;2.77;;
70312;SDS011;57723;51.698;5.344;2023-08-06T06:42:16;6.35;;;2.33;;
70312;SDS011;57723;51.698;5.344;2023-08-06T06:44:43;7.18;;;2.40;;
70312;SDS011;57723;51.698;5.344;2023-08-06T06:47:08;5.93;;;2.30;;
70312;SDS011;57723;51.698;5.344;2023-08-06T06:49:33;7.17;;;2.60;;
70312;SDS011;57723;51.698;5.344;2023-08-06T06:51:59;6.87;;;2.47;;
70312;SDS011;57723;51.698;5.344;2023-08-06T06:54:27;4.63;;;2.13;;
70312;SDS011;57723;51.698;5.344;2023-08-06T06:56:53;6.73;;;2.40;;
70312;SDS011;57723;51.698;5.344;2023-08-06T06:59:18;5.35;;;2.25;;
70312;SDS011;57723;51.698;5.344;2023-08-06T07:01:44;6.23;;;2.03;;
70312;SDS011;57723;51.698;5.344;2023-08-06T07:04:09;8.10;;;2.33;;
70312;SDS011;57723;51.698;5.344;2023-08-06T07:06:35;4.47;;;2.20;;
70312;SDS011;57723;51.698;5.344;2023-08-06T07:09:00;6.80;;;2.53;;
70312;SDS011;57723;51.698;5.344;2023-08-06T07:11:29;6.43;;;2.10;;
70312;SDS011;57723;51.698;5.344;2023-08-06T07:13:58;5.85;;;2.03;;
70312;SDS011;57723;51.698;5.344;2023-08-06T07:16:24;3.63;;;1.80;;
70312;SDS011;57723;51.698;5.344;2023-08-06T07:18:51;4.07;;;1.57;;
70312;SDS011;57723;51.698;5.344;2023-08-06T07:21:19;4.28;;;1.50;;
70312;SDS011;57723;51.698;5.344;2023-08-06T07:23:45;5.93;;;1.88;;
70312;SDS011;57723;51.698;5.344;2023-08-06T07:26:15;4.80;;;1.80;;
70312;SDS011;57723;51.698;5.344;2023-08-06T07:28:49;3.40;;;1.70;;
70312;SDS011;57723;51.698;5.344;2023-08-06T07:31:15;4.60;;;2.00;;
70312;SDS011;57723;51.698;5.344;2023-08-06T07:33:40;4.00;;;1.50;;
70312;SDS011;57723;51.698;5.344;2023-08-06T07:36:10;5.80;;;1.60;;
70312;SDS011;57723;51.698;5.344;2023-08-06T07:38:42;4.32;;;1.70;;
70312;SDS011;57723;51.698;5.344;2023-08-06T07:41:08;4.87;;;1.73;;
70312;SDS011;57723;51.698;5.344;2023-08-06T07:43:33;3.85;;;1.50;;
70312;SDS011;57723;51.698;5.344;2023-08-06T07:46:00;2.58;;;1.23;;
70312;SDS011;57723;51.698;5.344;2023-08-06T07:48:26;3.37;;;1.30;;
70312;SDS011;57723;51.698;5.344;2023-08-06T07:50:52;3.10;;;1.30;;
70312;SDS011;57723;51.698;5.344;2023-08-06T07:53:23;3.75;;;1.45;;
70312;SDS011;57723;51.698;5.344;2023-08-06T07:55:51;3.73;;;1.57;;
70312;SDS011;57723;51.698;5.344;2023-08-06T07:58:19;3.40;;;1.50;;
70312;SDS011;57723;51.698;5.344;2023-08-06T08:00:44;5.20;;;1.35;;
70312;SDS011;57723;51.698;5.344;2023-08-06T08:03:14;2.88;;;1.40;;
70312;SDS011;57723;51.698;5.344;2023-08-06T08:05:42;2.92;;;1.30;;
70312;SDS011;57723;51.698;5.344;2023-08-06T08:08:08;2.43;;;1.33;;
70312;SDS011;57723;51.698;5.344;2023-08-06T08:10:34;5.73;;;1.40;;
70312;SDS011;57723;51.698;5.344;2023-08-06T08:13:03;3.17;;;1.40;;
70312;SDS011;57723;51.698;5.344;2023-08-06T08:15:35;3.10;;;1.40;;
70312;SDS011;57723;51.698;5.344;2023-08-06T08:18:03;2.55;;;1.40;;
70312;SDS011;57723;51.698;5.344;2023-08-06T08:20:29;2.75;;;1.30;;
70312;SDS011;57723;51.698;5.344;2023-08-06T08:22:57;2.75;;;1.20;;
70312;SDS011;57723;51.698;5.344;2023-08-06T08:25:26;3.00;;;1.23;;
70312;SDS011;57723;51.698;5.344;2023-08-06T08:27:54;2.88;;;1.25;;
70312;SDS011;57723;51.698;5.344;2023-08-06T08:30:20;2.10;;;1.10;;
70312;SDS011;57723;51.698;5.344;2023-08-06T08:32:47;2.20;;;1.38;;
70312;SDS011;57723;51.698;5.344;2023-08-06T08:35:12;2.53;;;1.27;;
70312;SDS011;57723;51.698;5.344;2023-08-06T08:37:40;2.33;;;1.15;;
70312;SDS011;57723;51.698;5.344;2023-08-06T08:40:07;2.53;;;1.25;;
70312;SDS011;57723;51.698;5.344;2023-08-06T08:42:33;3.10;;;1.40;;
70312;SDS011;57723;51.698;5.344;2023-08-06T08:44:58;3.83;;;1.30;;
70312;SDS011;57723;51.698;5.344;2023-08-06T08:47:24;2.73;;;1.30;;
70312;SDS011;57723;51.698;5.344;2023-08-06T08:49:54;4.55;;;1.50;;
70312;SDS011;57723;51.698;5.344;2023-08-06T08:52:21;3.05;;;1.30;;
70312;SDS011;57723;51.698;5.344;2023-08-06T08:54:48;3.15;;;1.15;;
70312;SDS011;57723;51.698;5.344;2023-08-06T08:57:18;3.17;;;1.07;;
70312;SDS011;57723;51.698;5.344;2023-08-06T08:59:45;2.58;;;1.20;;
70312;SDS011;57723;51.698;5.344;2023-08-06T09:02:11;3.17;;;1.20;;
70312;SDS011;57723;51.698;5.344;2023-08-06T09:04:40;2.78;;;1.40;;
70312;SDS011;57723;51.698;5.344;2023-08-06T09:07:07;3.37;;;1.30;;
70312;SDS011;57723;51.698;5.344;2023-08-06T09:09:33;2.72;;;1.20;;
70312;SDS011;57723;51.698;5.344;2023-08-06T09:12:04;3.00;;;1.20;;
70312;SDS011;57723;51.698;5.344;2023-08-06T09:14:30;3.50;;;1.25;;
70312;SDS011;57723;51.698;5.344;2023-08-06T09:16:58;2.93;;;1.10;;
70312;SDS011;57723;51.698;5.344;2023-08-06T09:19:23;3.28;;;1.13;;
70312;SDS011;57723;51.698;5.344;2023-08-06T09:21:51;3.37;;;1.30;;
70312;SDS011;57723;51.698;5.344;2023-08-06T09:24:16;2.53;;;1.00;;
70312;SDS011;57723;51.698;5.344;2023-08-06T09:26:45;2.30;;;1.10;;
70312;SDS011;57723;51.698;5.344;2023-08-06T09:29:14;3.47;;;1.20;;
70312;SDS011;57723;51.698;5.344;2023-08-06T09:31:43;2.83;;;1.10;;
70312;SDS011;57723;51.698;5.344;2023-08-06T09:34:15;3.45;;;1.13;;
70312;SDS011;57723;51.698;5.344;2023-08-06T09:37:02;3.38;;;1.08;;
70312;SDS011;57723;51.698;5.344;2023-08-06T09:39:27;3.70;;;1.23;;
70312;SDS011;57723;51.698;5.344;2023-08-06T09:41:57;2.27;;;1.00;;
70312;SDS011;57723;51.698;5.344;2023-08-06T09:44:24;2.55;;;1.10;;
70312;SDS011;57723;51.698;5.344;2023-08-06T09:46:57;1.50;;;0.90;;
70312;SDS011;57723;51.698;5.344;2023-08-06T09:49:41;2.65;;;1.00;;
70312;SDS011;57723;51.698;5.344;2023-08-06T09:52:14;3.42;;;1.27;;
70312;SDS011;57723;51.698;5.344;2023-08-06T09:54:41;3.40;;;1.00;;
70312;SDS011;57723;51.698;5.344;2023-08-06T09:57:10;3.45;;;0.90;;
70312;SDS011;57723;51.698;5.344;2023-08-06T09:59:37;2.20;;;1.05;;
70312;SDS011;57723;51.698;5.344;2023-08-06T10:02:02;2.65;;;1.15;;
70312;SDS011;57723;51.698;5.344;2023-08-06T10:04:32;3.53;;;1.10;;
70312;SDS011;57723;51.698;5.344;2023-08-06T10:07:00;3.50;;;1.02;;
70312;SDS011;57723;51.698;5.344;2023-08-06T10:09:28;2.70;;;1.00;;
70312;SDS011;57723;51.698;5.344;2023-08-06T10:11:53;3.13;;;1.05;;
70312;SDS011;57723;51.698;5.344;2023-08-06T10:14:21;2.38;;;0.93;;
70312;SDS011;57723;51.698;5.344;2023-08-06T10:16:48;5.17;;;1.57;;
70312;SDS011;57723;51.698;5.344;2023-08-06T10:19:13;4.05;;;1.17;;
70312;SDS011;57723;51.698;5.344;2023-08-06T10:21:40;2.78;;;1.05;;
70312;SDS011;57723;51.698;5.344;2023-08-06T10:24:09;2.77;;;1.20;;
70312;SDS011;57723;51.698;5.344;2023-08-06T10:26:42;2.75;;;1.23;;
70312;SDS011;57723;51.698;5.344;2023-08-06T10:32:09;2.97;;;1.10;;
70312;SDS011;57723;51.698;5.344;2023-08-06T10:37:36;2.45;;;0.90;;
70312;SDS011;57723;51.698;5.344;2023-08-06T10:40:02;2.83;;;1.10;;
70312;SDS011;57723;51.698;5.344;2023-08-06T10:42:30;1.80;;;1.00;;
70312;SDS011;57723;51.698;5.344;2023-08-06T10:45:15;2.38;;;1.10;;
70312;SDS011;57723;51.698;5.344;2023-08-06T10:47:42;2.08;;;1.05;;
70312;SDS011;57723;51.698;5.344;2023-08-06T10:50:10;2.53;;;1.00;;
70312;SDS011;57723;51.698;5.344;2023-08-06T10:52:35;2.53;;;1.10;;
70312;SDS011;57723;51.698;5.344;2023-08-06T10:55:01;3.13;;;1.00;;
70312;SDS011;57723;51.698;5.344;2023-08-06T10:57:30;2.78;;;1.10;;
70312;SDS011;57723;51.698;5.344;2023-08-06T10:59:59;3.40;;;1.20;;
70312;SDS011;57723;51.698;5.344;2023-08-06T11:02:27;2.87;;;1.00;;
70312;SDS011;57723;51.698;5.344;2023-08-06T11:05:02;2.47;;;1.13;;
70312;SDS011;57723;51.698;5.344;2023-08-06T11:07:29;2.20;;;1.08;;
70312;SDS011;57723;51.698;5.344;2023-08-06T11:10:00;2.60;;;1.00;;
70312;SDS011;57723;51.698;5.344;2023-08-06T11:12:26;2.42;;;1.10;;
70312;SDS011;57723;51.698;5.344;2023-08-06T11:14:53;3.28;;;1.20;;
70312;SDS011;57723;51.698;5.344;2023-08-06T11:17:18;2.47;;;1.10;;
70312;SDS011;57723;51.698;5.344;2023-08-06T11:19:44;1.80;;;1.00;;
70312;SDS011;57723;51.698;5.344;2023-08-06T11:22:10;3.77;;;1.17;;
70312;SDS011;57723;51.698;5.344;2023-08-06T11:24:47;2.37;;;1.20;;
70312;SDS011;57723;51.698;5.344;2023-08-06T11:27:13;1.73;;;1.00;;
70312;SDS011;57723;51.698;5.344;2023-08-06T11:29:43;2.25;;;1.10;;
70312;SDS011;57723;51.698;5.344;2023-08-06T11:32:09;2.30;;;1.10;;
70312;SDS011;57723;51.698;5.344;2023-08-06T11:34:37;2.47;;;1.10;;
70312;SDS011;57723;51.698;5.344;2023-08-06T11:37:16;4.00;;;1.20;;
70312;SDS011;57723;51.698;5.344;2023-08-06T11:39:47;2.50;;;1.10;;
70312;SDS011;57723;51.698;5.344;2023-08-06T11:42:16;1.80;;;0.90;;
70312;SDS011;57723;51.698;5.344;2023-08-06T11:44:48;2.57;;;0.90;;
70312;SDS011;57723;51.698;5.344;2023-08-06T11:47:17;2.08;;;1.10;;
70312;SDS011;57723;51.698;5.344;2023-08-06T11:49:48;2.50;;;1.30;;
70312;SDS011;57723;51.698;5.344;2023-08-06T11:54:39;2.23;;;1.13;;
70312;SDS011;57723;51.698;5.344;2023-08-06T11:57:07;2.30;;;1.10;;
70312;SDS011;57723;51.698;5.344;2023-08-06T11:59:33;2.60;;;1.10;;
70312;SDS011;57723;51.698;5.344;2023-08-06T12:02:02;3.30;;;1.40;;
70312;SDS011;57723;51.698;5.344;2023-08-06T12:07:20;2.80;;;1.00;;
70312;SDS011;57723;51.698;5.344;2023-08-06T12:09:54;2.73;;;1.20;;
70312;SDS011;57723;51.698;5.344;2023-08-06T12:12:19;2.80;;;1.25;;
70312;SDS011;57723;51.698;5.344;2023-08-06T12:14:45;3.47;;;1.10;;
70312;SDS011;57723;51.698;5.344;2023-08-06T12:17:12;2.97;;;1.20;;
70312;SDS011;57723;51.698;5.344;2023-08-06T12:19:38;3.65;;;1.30;;
70312;SDS011;57723;51.698;5.344;2023-08-06T12:22:10;3.10;;;1.30;;
70312;SDS011;57723;51.698;5.344;2023-08-06T12:24:49;3.08;;;1.17;;
70312;SDS011;57723;51.698;5.344;2023-08-06T12:27:15;1.95;;;1.10;;
70312;SDS011;57723;51.698;5.344;2023-08-06T12:29:47;1.80;;;1.00;;
70312;SDS011;57723;51.698;5.344;2023-08-06T12:32:16;1.65;;;0.90;;
70312;SDS011;57723;51.698;5.344;2023-08-06T12:34:46;3.40;;;1.27;;
70312;SDS011;57723;51.698;5.344;2023-08-06T12:37:21;3.17;;;1.23;;
70312;SDS011;57723;51.698;5.344;2023-08-06T12:39:50;1.88;;;1.00;;
70312;SDS011;57723;51.698;5.344;2023-08-06T12:42:16;2.63;;;1.20;;
70312;SDS011;57723;51.698;5.344;2023-08-06T12:44:42;2.25;;;1.10;;
70312;SDS011;57723;51.698;5.344;2023-08-06T12:47:08;2.80;;;0.97;;
70312;SDS011;57723;51.698;5.344;2023-08-06T12:49:33;2.03;;;0.90;;
70312;SDS011;57723;51.698;5.344;2023-08-06T12:51:59;2.03;;;1.20;;
70312;SDS011;57723;51.698;5.344;2023-08-06T12:54:25;2.43;;;1.20;;
70312;SDS011;57723;51.698;5.344;2023-08-06T12:56:50;3.35;;;1.30;;
70312;SDS011;57723;51.698;5.344;2023-08-06T12:59:16;2.20;;;1.10;;
70312;SDS011;57723;51.698;5.344;2023-08-06T13:01:42;2.05;;;1.00;;
70312;SDS011;57723;51.698;5.344;2023-08-06T13:04:09;2.60;;;1.05;;
70312;SDS011;57723;51.698;5.344;2023-08-06T13:06:34;1.90;;;0.90;;
70312;SDS011;57723;51.698;5.344;2023-08-06T13:09:02;3.13;;;1.10;;
70312;SDS011;57723;51.698;5.344;2023-08-06T13:11:28;2.53;;;1.20;;
70312;SDS011;57723;51.698;5.344;2023-08-06T13:13:53;2.43;;;1.10;;
70312;SDS011;57723;51.698;5.344;2023-08-06T13:16:20;1.95;;;1.00;;
70312;SDS011;57723;51.698;5.344;2023-08-06T13:18:45;2.47;;;1.10;;
70312;SDS011;57723;51.698;5.344;2023-08-06T13:21:11;2.42;;;1.02;;
70312;SDS011;57723;51.698;5.344;2023-08-06T13:23:37;2.47;;;1.10;;
70312;SDS011;57723;51.698;5.344;2023-08-06T13:26:04;2.75;;;1.00;;
70312;SDS011;57723;51.698;5.344;2023-08-06T13:28:29;2.85;;;1.10;;
70312;SDS011;57723;51.698;5.344;2023-08-06T13:30:55;1.60;;;0.87;;
70312;SDS011;57723;51.698;5.344;2023-08-06T13:33:23;2.95;;;1.00;;
70312;SDS011;57723;51.698;5.344;2023-08-06T13:35:48;3.67;;;1.00;;
70312;SDS011;57723;51.698;5.344;2023-08-06T13:38:18;3.42;;;1.02;;
70312;SDS011;57723;51.698;5.344;2023-08-06T13:40:44;2.67;;;1.10;;
70312;SDS011;57723;51.698;5.344;2023-08-06T13:43:11;2.25;;;1.00;;
70312;SDS011;57723;51.698;5.344;2023-08-06T13:45:36;2.10;;;1.00;;
70312;SDS011;57723;51.698;5.344;2023-08-06T13:48:03;1.73;;;0.93;;
70312;SDS011;57723;51.698;5.344;2023-08-06T13:50:32;2.33;;;1.10;;
70312;SDS011;57723;51.698;5.344;2023-08-06T13:53:15;2.17;;;1.00;;
70312;SDS011;57723;51.698;5.344;2023-08-06T13:55:41;3.83;;;1.20;;
70312;SDS011;57723;51.698;5.344;2023-08-06T13:58:06;2.33;;;1.00;;
70312;SDS011;57723;51.698;5.344;2023-08-06T14:00:32;1.70;;;0.90;;
70312;SDS011;57723;51.698;5.344;2023-08-06T14:03:00;2.15;;;1.00;;
70312;SDS011;57723;51.698;5.344;2023-08-06T14:05:26;2.67;;;1.00;;
70312;SDS011;57723;51.698;5.344;2023-08-06T14:07:51;2.72;;;1.00;;
70312;SDS011;57723;51.698;5.344;2023-08-06T14:10:17;2.00;;;0.80;;
70312;SDS011;57723;51.698;5.344;2023-08-06T14:12:42;3.33;;;1.10;;
70312;SDS011;57723;51.698;5.344;2023-08-06T14:15:08;1.70;;;0.93;;
70312;SDS011;57723;51.698;5.344;2023-08-06T14:17:34;3.10;;;0.90;;
70312;SDS011;57723;51.698;5.344;2023-08-06T14:20:01;2.50;;;1.00;;
70312;SDS011;57723;51.698;5.344;2023-08-06T14:22:29;1.50;;;0.90;;
70312;SDS011;57723;51.698;5.344;2023-08-06T14:24:58;1.58;;;0.80;;
70312;SDS011;57723;51.698;5.344;2023-08-06T14:27:41;2.40;;;1.10;;
70312;SDS011;57723;51.698;5.344;2023-08-06T14:30:06;1.80;;;0.90;;
70312;SDS011;57723;51.698;5.344;2023-08-06T14:32:34;1.83;;;0.90;;
70312;SDS011;57723;51.698;5.344;2023-08-06T14:35:03;2.35;;;1.13;;
70312;SDS011;57723;51.698;5.344;2023-08-06T14:37:31;2.22;;;1.08;;
70312;SDS011;57723;51.698;5.344;2023-08-06T14:39:58;2.78;;;0.90;;
70312;SDS011;57723;51.698;5.344;2023-08-06T14:42:25;4.07;;;1.00;;
70312;SDS011;57723;51.698;5.344;2023-08-06T14:44:54;1.70;;;1.00;;
70312;SDS011;57723;51.698;5.344;2023-08-06T14:47:19;1.73;;;0.90;;
70312;SDS011;57723;51.698;5.344;2023-08-06T14:49:45;2.38;;;0.90;;
70312;SDS011;57723;51.698;5.344;2023-08-06T14:52:13;1.43;;;0.93;;
70312;SDS011;57723;51.698;5.344;2023-08-06T14:54:39;1.80;;;0.80;;
70312;SDS011;57723;51.698;5.344;2023-08-06T14:57:04;1.37;;;0.70;;
70312;SDS011;57723;51.698;5.344;2023-08-06T14:59:30;1.37;;;0.70;;